Weather observations for the past three days for
Abbeville Chris Crusta Memorial Airport
Imperial (Metric)
Date Time (cdt) Wind (mph) Vis. (mi.) Weather Sky Cond. Temperature (ºF) Relative Humidity Wind Chill (°F) Heat Index (°F) Pressure Precipitation (in)
Air Dwpt 6 hour altimeter (in) sea level (mb) 1 hr 3 hr 6 hr
Max. Min.
10 16:35 SE 9 7.00 Partly Cloudy SCT023 83.5 75.4 77% 91 29.95 0.0
10 16:15 S 10 8.00 Partly Cloudy SCT024 84 75.7 76% 93 29.95 0.0
10 15:55 S 7 8.00 Partly Cloudy SCT024 83.5 75.9 78% 92 29.94 0.0
10 15:35 S 12 7.00 A Few Clouds FEW025 83.8 75.7 77% 92 29.94 0.0
10 15:15 S 10 8.00 A Few Clouds FEW025 83.8 75.9 77% 93 29.93 0.0
10 14:55 SE 9 9.00 A Few Clouds FEW025 82.8 74.7 77% 90 29.93 0.0
10 14:35 S 10 9.00 A Few Clouds FEW026 83.8 74.8 74% 92 29.93 0.0
10 14:15 SE 9 10.00 A Few Clouds FEW025 83.3 74.3 74% 90 29.93 0.0
10 13:55 SE 6 10.00 A Few Clouds FEW023 82.9 75.4 78% 91 29.94 0.0
10 13:35 SE 7 10.00 Partly Cloudy SCT022 81.5 75.4 82% 88 29.94 0.0
10 13:15 Vrbl 3 10.00 Mostly Cloudy BKN021 81.1 74.3 80% 87 29.96 0.0
10 12:55 Vrbl 5 9.00 Partly Cloudy FEW020 SCT330 81.5 74.8 81.5 66.7 80% 88 29.97 0.0
10 12:35 E 3 9.00 A Few Clouds FEW340 80.8 73.9 80% 86 29.97 0.0
10 12:15 E 5 10.00 A Few Clouds FEW046 80.2 74.8 84% 85 29.98 0.0
10 11:55 E 6 10.00 Partly Cloudy FEW046 SCT350 SCT380 78.3 73.6 86% 81 29.99 0.0
10 11:35 NE 6 10.00 Mostly Cloudy FEW013 SCT046 BKN380 77.9 74.3 89% 80 29.99 0.0
10 11:15 E 5 10.00 Mostly Cloudy SCT012 SCT037 BKN046 BKN060 76.3 73 90% 77 30 0.0
10 10:55 NE 8 10.00 Overcast BKN011 OVC038 76.5 73.4 90% 77 30 0.0
10 10:35 Vrbl 6 10.00 Mostly Cloudy BKN011 BKN037 75.6 73.2 92% 75 30 0.0
10 10:15 Vrbl 5 10.00 Mostly Cloudy SCT008 BKN045 74.5 74.5 100% 30 0.0
10 09:55 NE 6 10.00 Overcast SCT006 OVC042 71.2 71.2 100% 30.01 0.0
10 09:35 NE 6 10.00 Overcast BKN005 OVC041 70 70 100% 30.01 0.0
10 09:15 NE 6 10.00 Overcast OVC004 69.1 69.1 100% 30 0.0
10 08:55 NE 5 8.00 Overcast OVC003 68.2 68.2 100% 29.99 0.0
10 08:35 NE 7 5.00 Fog/Mist OVC002 67.8 67.8 100% 29.99 0.0
10 08:15 NE 6 6.00 Fog/Mist OVC002 67.6 67.6 100% 29.98 0.0
10 07:55 NE 6 2.50 Fog/Mist OVC002 67.1 67.1 100% 29.97 0.0
10 07:35 NE 7 1.75 Fog/Mist OVC002 67.1 67.1 100% 29.97 0.0
10 07:15 NE 6 1.75 Fog/Mist OVC002 66.7 66.7 100% 29.96 0.0
10 06:55 Vrbl 5 0.50 Fog VV002 66.7 66.7 67.6 65.3 100% 29.94 0.0
10 06:35 NE 6 0.25 Fog VV002 66.7 66.7 100% 29.94 0.0
10 06:15 NE 6 0.25 Fog VV002 66.4 66.4 100% 29.93 0.0
10 05:55 NE 5 0.50 Fog VV002 66.4 66.4 100% 29.91 0.0
10 05:35 NE 3 0.50 Fog VV002 66.2 66.2 100% 29.9 0.0
10 05:15 NE 3 0.25 Fog VV001 66 66 100% 29.9 0.0
10 04:55 Calm 0.50 Fog VV001 65.8 65.8 100% 29.89 0.0
10 04:35 Vrbl 3 0.75 Fog/Mist VV002 66 66 100% 29.88 0.0
10 04:15 Calm 0.50 Fog VV002 66.4 66.4 100% 29.89 0.0
10 03:55 NE 5 0.50 Fog VV002 66.6 66.6 100% 29.89 0.0
10 03:35 NE 5 2.00 Fog/Mist BKN002 66.2 66.2 100% 29.89 0.0
10 03:15 Calm 4.00 Fog/Mist CLR 65.8 65.8 100% 29.88 0.0
10 02:55 Calm 1.50 Fog/Mist CLR 65.8 65.8 100% 29.88 0.0
10 02:35 Calm 4.00 Fog/Mist CLR 66.2 66.2 100% 29.88 0.0
10 02:15 NE 3 1.00 Fog/Mist CLR 66.2 66.2 100% 29.88 0.0
10 01:55 N 3 0.50 Fog CLR 65.7 65.7 100% 29.88 0.0
10 01:35 Calm 0.50 Fog CLR 66.2 66.2 100% 29.87 0.0
10 01:15 Calm 2.00 Fog/Mist CLR 66.9 66.9 100% 29.87 0.0
10 00:55 Calm 8.00 A Few Clouds FEW008 68 68 70 67.8 100% 29.88 0.0
10 00:35 N 6 9.00 A Few Clouds FEW008 68 68 100% 29.88 0.0
10 00:15 Calm 10.00 Fair CLR 69.4 69.4 100% 29.88 0.0
09 23:55 S 7 10.00 Partly Cloudy SCT190 69.3 69.3 100% 29.87 0.0
09 23:35 S 3 10.00 Mostly Cloudy BKN190 69.6 69.6 100% 29.88 0.0
09 23:15 SE 7 10.00 Partly Cloudy SCT200 69.3 69.3 100% 29.87 0.0
09 22:55 S 9 10.00 Mostly Cloudy BKN150 BKN210 69.1 69.1 100% 29.88 0.0
09 22:35 S 9 10.00 Partly Cloudy SCT150 69.1 69.1 100% 29.87 0.0
09 22:15 SE 9 10.00 Partly Cloudy SCT150 68.7 68.7 100% 29.88 0.0
09 21:55 S 8 10.00 Mostly Cloudy BKN150 68.4 68.4 100% 29.9 0.0
09 21:35 S 6 10.00 Mostly Cloudy BKN150 68.4 68.4 100% 29.9 0.0
09 21:15 SE 3 10.00 Mostly Cloudy FEW130 BKN150 68.7 68.7 100% 29.9 0.0
09 20:55 SE 5 10.00 Mostly Cloudy BKN130 68.7 68.7 100% 29.89 0.0
09 20:35 SE 3 10.00 Partly Cloudy SCT130 68.9 68.9 100% 29.89 0.0
09 20:15 E 3 10.00 Mostly Cloudy FEW031 BKN150 68.9 68.9 100% 29.88 0.0
09 19:55 Calm 8.00 Mostly Cloudy SCT031 BKN150 69.4 69.4 100% 29.88 0.0
09 19:35 E 3 10.00 Mostly Cloudy BKN150 69.6 69.6 100% 29.88 0.0
09 19:15 SE 3 10.00 Mostly Cloudy BKN160 69.8 69.8 100% 29.86 0.0
09 18:55 SE 5 10.00 Mostly Cloudy BKN160 69.8 69.8 69.8 67.1 100% 29.85 0.0
09 18:35 SE 6 9.00 Partly Cloudy SCT150 69.6 69.6 100% 29.85 0.0
09 18:15 SE 7 9.00 Partly Cloudy SCT150 69.6 69.6 100% 29.84 0.0
09 17:55 SE 8 7.00 Partly Cloudy SCT160 69.4 69.4 100% 29.83 0.0
09 17:35 SE 8 7.00 Mostly Cloudy FEW110 BKN160 69.3 69.3 100% 29.82 0.0
09 17:15 E 7 7.00 Partly Cloudy FEW030 SCT110 68.9 68.9 100% 29.81 0.0
09 16:55 E 6 5.00 Light Rain Fog/Mist BKN030 68.9 68.9 100% 29.85 0.0
09 16:35 NE 7 4.00 Light Rain Fog/Mist FEW007 SCT033 69.1 69.1 100% 29.85 0.0
09 16:15 E 5 4.00 Light Rain Fog/Mist SCT007 BKN034 68.7 68.7 100% 29.85 0.0
09 15:55 Vrbl 5 7.00 Light Rain FEW090 68.4 68.4 100% 29.85 0.0
09 15:35 SE 10 7.00 Thunderstorm in Vicinity SCT020 SCT043 68.4 68.4 100% 29.84 0.0
09 15:15 Calm 0.50 Rain Fog Thunderstorm in Vicinity SCT005 OVC020 68.2 68.2 100% 29.86 0.0
09 14:55 NE 6 3.00 Thunderstorm Light Rain Fog/Mist OVC005 68.4 68.4 100% 29.86 0.0
09 14:35 Vrbl 5 7.00 Thunderstorm in Vicinity BKN006 OVC029 68.2 68.2 100% 29.85 0.0
09 14:15 E 8 5.00 Light Rain Fog/Mist OVC006 68 68 100% 29.85 0.0
09 13:55 E 7 6.00 Light Rain Fog/Mist Thunderstorm in Vicinity BKN005 OVC036 67.8 67.8 100% 29.86 0.0
09 13:35 E 6 7.00 Overcast SCT005 OVC035 68.2 68.2 100% 29.86 0.0
09 13:15 Vrbl 6 2.50 Light Rain Fog/Mist Thunderstorm in Vicinity FEW004 BKN015 OVC040 67.5 67.5 100% 29.87 0.0
09 12:55 SE 9 2.50 Light Rain Fog/Mist Thunderstorm in Vicinity SCT005 BKN019 OVC030 67.3 67.3 77.2 66.4 100% 29.88 0.0 0.01 0.01
09 12:35 E 7 4.00 Light Rain Fog/Mist Thunderstorm in Vicinity BKN018 BKN029 67.1 67.1 100% 29.86 0.0 0.01
09 12:15 S 9 1.00 Thunderstorm Rain Fog/Mist SCT005 OVC011 67.3 67.3 100% 29.88 0.0 0.01
09 11:55 E 5 2.00 Thunderstorm Light Rain Fog/Mist OVC019 66.9 66.9 100% 29.86 0.0
09 11:35 Vrbl 3 1.00 Rain Fog/Mist Thunderstorm in Vicinity BKN019 OVC028 66.9 66.9 100% 29.86 0.0
09 11:15 SE 6 5.00 Thunderstorm Light Rain Fog/Mist FEW004 SCT023 BKN029 OVC039 67.1 67.1 100% 29.87 0.0
09 10:55 NE 7 6.00 Light Rain Fog/Mist Thunderstorm in Vicinity FEW013 BKN028 BKN034 BKN049 67.5 67.5 100% 29.86 0.0
09 10:35 Vrbl 5 6.00 Light Rain Fog/Mist Thunderstorm in Vicinity SCT029 BKN037 66.9 66.9 100% 29.88 0.0
09 10:15 Vrbl 5 5.00 Light Rain Fog/Mist Thunderstorm in Vicinity BKN012 BKN037 66.7 66.7 100% 29.86 0.0
09 09:55 NE 9 0.75 Thunderstorm Heavy Rain Fog/Mist VV008 66.7 66.7 100% 29.87 0.0
09 09:35 NE 13 G 22 0.50 Thunderstorm Heavy Rain Fog BKN007 OVC013 66.6 66.6 100% 29.85 0.0
09 09:15 NE 12 G 18 7.00 Thunderstorm Light Rain SCT005 OVC014 67.3 67.3 100% 29.85 0.0
09 08:55 NE 8 4.00 Light Rain Fog/Mist Thunderstorm in Vicinity OVC006 67.8 67.8 100% 29.85 0.0
09 08:35 NE 9 2.00 Light Rain Fog/Mist Thunderstorm in Vicinity OVC006 76.8 76.8 100% 77 29.84 0.0
09 08:15 SW 3 7.00 Light Rain Thunderstorm in Vicinity OVC006 77.2 77.2 100% 78 29.83 0.0
09 07:55 W 3 9.00 Thunderstorm in Vicinity BKN008 OVC013 76.8 76.8 100% 77 29.84 0.0
09 07:35 SW 5 8.00 Thunderstorm SCT007 OVC013 75.6 75.6 100% 74 29.83 0.0
09 07:15 SW 5 7.00 Thunderstorm BKN007 OVC011 76.5 76.5 100% 76 29.83 0.0
09 06:55 SW 3 7.00 Overcast BKN006 OVC011 76.1 76.1 76.1 69.6 100% 75 29.83 0.0
09 06:35 SW 6 8.00 Overcast OVC008 75.7 75.7 100% 74 29.83 0.0
09 06:15 S 5 8.00 Mostly Cloudy BKN007 75 75 100% 72 29.82 0.0
09 05:55 S 6 9.00 Mostly Cloudy BKN007 74.8 74.8 100% 29.8 0.0
09 05:35 S 3 10.00 Overcast BKN006 OVC012 74.8 74.8 100% 29.81 0.0
09 05:15 S 5 10.00 Overcast BKN007 OVC012 74.8 74.8 100% 29.8 0.0
09 04:55 S 7 10.00 Overcast OVC008 74.5 74.5 100% 29.79 0.0
09 04:35 S 7 10.00 Overcast OVC007 74.5 74.5 100% 29.79 0.0
09 04:15 S 6 10.00 Overcast OVC008 74.3 74.3 100% 29.8 0.0
09 03:55 SE 7 10.00 Overcast OVC009 73.9 73.9 100% 29.79 0.0
09 03:35 SE 8 10.00 Overcast BKN010 OVC017 73.8 73.8 100% 29.79 0.0
09 03:15 SE 7 10.00 Overcast BKN012 OVC019 73.8 73.8 100% 29.8 0.0
09 02:55 SE 7 10.00 Mostly Cloudy BKN012 73.6 73.6 100% 29.8 0.0
09 02:35 SE 9 10.00 Partly Cloudy SCT012 SCT250 73.4 73.4 100% 29.81 0.0
09 02:15 SE 8 10.00 A Few Clouds FEW016 73.2 73.2 100% 29.82 0.0
09 01:55 SE 7 10.00 Fair CLR 72.3 72.3 100% 29.83 0.0
09 01:35 Vrbl 5 10.00 Fair CLR 71.6 71.6 100% 29.84 0.0
09 01:15 SE 6 10.00 A Few Clouds FEW130 70.7 70.7 100% 29.84 0.0
09 00:55 Calm 8.00 A Few Clouds FEW025 69.6 69.6 71.8 69.6 100% 29.85 0.0
09 00:35 Calm 10.00 Partly Cloudy SCT023 70 70 100% 29.86 0.0
09 00:15 Calm 10.00 Mostly Cloudy BKN022 70.3 70.3 100% 29.86 0.0
08 23:55 E 3 10.00 Mostly Cloudy SCT022 BKN070 BKN120 70.5 70.5 100% 29.87 0.0
08 23:35 NE 3 10.00 Partly Cloudy SCT120 71.2 71.2 100% 29.88 0.0
08 23:15 SE 5 10.00 Partly Cloudy SCT120 70.5 70.5 100% 29.86 0.0
08 22:55 S 5 10.00 Mostly Cloudy FEW031 SCT044 SCT070 BKN120 70 70 100% 29.86 0.0
08 22:35 Calm 10.00 Mostly Cloudy FEW030 BKN044 BKN070 70.2 70.2 100% 29.87 0.0
08 22:15 Calm 10.00 Partly Cloudy FEW029 SCT070 70.5 70.5 100% 29.88 0.0
08 21:55 SE 5 10.00 Fair CLR 70.7 70.7 100% 29.86 0.0
08 21:35 SE 3 10.00 Thunderstorm in Vicinity FEW240 70.9 70.9 100% 29.85 0.0
08 21:15 SE 5 10.00 Partly Cloudy FEW070 SCT100 70.7 70.7 100% 29.83 0.0
08 20:55 SE 3 10.00 Mostly Cloudy BKN070 70.3 70.3 100% 29.84 0.0
08 20:35 S 5 10.00 Partly Cloudy FEW070 SCT100 SCT370 70.5 70.5 100% 29.84 0.0
08 20:15 SE 6 10.00 Partly Cloudy SCT065 70.7 70.7 100% 29.83 0.0
08 19:55 Calm 4.00 Light Rain Fog/Mist OVC070 71.2 71.2 100% 29.85 0.0
08 19:35 SE 5 9.00 Overcast OVC070 71.4 71.4 100% 29.84 0.0
08 19:15 SE 6 10.00 Mostly Cloudy BKN065 71.6 71.6 100% 29.84 0.0
08 18:55 SE 10 10.00 A Few Clouds FEW060 72.3 72.3 73.2 66.9 100% 29.83 0.0
08 18:35 E 6 10.00 Mostly Cloudy BKN060 72.5 72.3 99% 29.83 0.0
08 18:15 E 8 10.00 Partly Cloudy SCT050 SCT220 72.9 72 97% 29.84 0.0
08 17:55 E 5 10.00 Partly Cloudy SCT150 72.5 72.5 100% 29.83 0.0
08 17:35 E 7 10.00 A Few Clouds FEW150 72.5 72.5 100% 29.82 0.0
08 17:15 SE 6 10.00 Mostly Cloudy BKN047 BKN060 71.6 71.6 100% 29.83 0.0
08 16:55 Vrbl 3 10.00 Mostly Cloudy BKN050 70.5 70.5 100% 29.85 0.0
08 16:35 Vrbl 3 10.00 Mostly Cloudy BKN050 70 70 100% 29.86 0.0
08 16:15 E 6 10.00 Light Rain SCT006 BKN055 69.6 69.6 100% 29.86 0.0
08 15:55 E 7 6.00 Light Rain Fog/Mist BKN007 OVC040 69.1 69.1 100% 29.87 0.0
08 15:35 SE 7 10.00 Overcast FEW004 SCT022 BKN039 OVC048 68.4 68.4 100% 29.88 0.0
08 15:15 E 10 7.00 Light Rain FEW004 BKN025 BKN037 OVC049 67.8 67.8 100% 29.88 0.0
08 14:55 SE 7 0.50 Heavy Rain Fog Thunderstorm in Vicinity VV013 67.5 67.5 100% 29.89 0.0
08 14:35 SE 5 1.25 Thunderstorm Rain Fog/Mist FEW004 OVC013 67.6 67.6 100% 29.89 0.0
08 14:15 N 12 4.00 Thunderstorm Light Rain Fog/Mist SCT005 BKN027 67.6 67.6 100% 29.9 0.0
08 13:55 NE 8 5.00 Thunderstorm Light Rain Fog/Mist OVC026 67.5 67.5 100% 29.89 0.0
08 13:35 NE 9 1.25 Rain Fog/Mist SCT005 OVC026 67.3 67.3 100% 29.89 0.0
08 13:15 NE 9 2.50 Rain Fog/Mist Thunderstorm in Vicinity BKN005 BKN010 OVC021 66.9 66.9 100% 29.91 0.0
08 12:55 N 12 7.00 Light Rain Thunderstorm in Vicinity OVC005 68.9 68.9 70.5 66.6 100% 29.9 0.0 0.01
08 12:35 N 12 8.00 Light Rain OVC005 69.3 69.3 100% 29.91 0.0
08 12:15 N 7 9.00 Light Rain OVC005 70 70 100% 29.91 0.0
08 11:55 N 3 5.00 Fog/Mist OVC005 70.2 70.2 100% 29.9 0.0 0.01
08 11:35 Calm 5.00 Fog/Mist OVC005 70.3 70.3 100% 29.88 0.0 0.01
08 11:15 NE 3 5.00 Fog/Mist OVC005 69.8 69.8 100% 29.89 0.0
08 10:55 Calm 1.75 Light Rain Fog/Mist OVC006 69.3 69.3 100% 29.89 0.0
08 10:35 Calm 4.00 Light Rain Fog/Mist BKN005 OVC010 69.3 69.3 100% 29.91 0.0
08 10:15 Vrbl 3 6.00 Fog/Mist OVC009 69.3 69.3 100% 29.92 0.0
08 09:55 Calm 4.00 Light Rain Fog/Mist OVC008 68.9 68.9 100% 29.92 0.0
08 09:35 NE 6 6.00 Fog/Mist OVC008 68.5 68 98% 29.92 0.0
08 09:15 NE 6 8.00 Overcast OVC009 68.7 67.3 95% 29.92 0.0
08 08:55 NE 6 7.00 Overcast OVC009 68.7 67.3 95% 29.91 0.0
08 08:35 NE 5 8.00 Overcast OVC008 68.7 67.1 95% 29.91 0.0
08 08:15 Vrbl 6 8.00 Overcast OVC008 68.2 66.7 95% 29.89 0.0
08 07:55 Vrbl 5 8.00 Overcast OVC008 67.5 66 95% 29.9 0.0
08 07:35 Vrbl 3 8.00 Overcast OVC008 67.1 65.7 95% 29.91 0.0
08 07:15 Vrbl 5 8.00 Overcast OVC008 66.6 65.1 95% 29.92 0.0
08 06:55 NE 6 10.00 Overcast OVC009 66.4 64.9 66.6 66 95% 29.92 0.0
08 06:35 NE 6 10.00 Overcast OVC010 66.4 64.9 95% 29.93 0.0
08 06:15 NE 6 10.00 Overcast OVC010 66.4 64.9 95% 29.94 0.0
08 05:55 NE 6 10.00 Overcast OVC009 66.4 64.9 95% 29.93 0.0
08 05:35 NE 6 10.00 Overcast OVC008 66.4 65.1 96% 29.92 0.0
08 05:15 Vrbl 5 10.00 Overcast OVC009 66.4 65.1 96% 29.92 0.0
08 04:55 NE 9 10.00 Overcast OVC010 66.4 65.1 96% 29.9 0.0
08 04:35 NE 8 10.00 Overcast OVC010 66.6 65.3 96% 29.88 0.0
08 04:15 Vrbl 5 10.00 Overcast OVC011 66.6 65.3 96% 29.9 0.0
08 03:55 NE 5 10.00 Overcast OVC015 66.4 64.9 95% 29.91 0.0
08 03:35 NE 5 10.00 Overcast OVC017 66.4 65.1 96% 29.91 0.0
08 03:15 NE 5 10.00 Overcast OVC018 66.4 64.8 95% 29.9 0.0
08 02:55 E 5 10.00 Overcast OVC017 66.2 64.8 95% 29.9 0.0
08 02:35 Vrbl 6 10.00 Overcast OVC018 66.2 64.8 95% 29.89 0.0
08 02:15 NE 5 10.00 Overcast OVC018 66.2 64.8 95% 29.92 0.0
08 01:55 NE 5 10.00 Overcast OVC019 66 64.6 95% 29.93 0.0
08 01:35 NE 7 10.00 Overcast OVC019 66 64.6 95% 29.93 0.0
08 01:15 NE 6 10.00 Overcast OVC018 66 64.6 95% 29.94 0.0
08 00:55 NE 6 10.00 Overcast OVC020 66.2 64.8 73.2 65.3 95% 29.95 0.0
08 00:35 N 5 10.00 Overcast OVC019 66.2 64.8 95% 29.96 0.0
08 00:15 NE 5 10.00 Overcast OVC021 66.2 64.8 95% 29.95 0.0
07 23:55 NE 5 10.00 Overcast OVC021 66.2 64.6 95% 29.96 0.0
07 23:35 NE 5 10.00 Overcast OVC019 66 64.6 95% 29.96 0.0
07 23:15 NE 7 10.00 Overcast OVC017 66 64.6 95% 29.96 0.0
07 22:55 E 6 10.00 Mostly Cloudy BKN018 65.7 64.4 96% 29.95 0.0
07 22:35 NE 3 10.00 A Few Clouds FEW020 65.3 64.4 97% 29.96 0.0
07 22:15 NE 6 10.00 A Few Clouds FEW200 66 64.2 94% 29.96 0.0
07 21:55 NE 3 10.00 Fair CLR 66.2 64.2 93% 29.96 0.0
07 21:35 NE 6 10.00 Fair CLR 66.6 63.9 91% 29.95 0.0
07 21:15 NE 6 10.00 Fair CLR 66.9 64.4 92% 29.95 0.0
07 20:55 NE 7 10.00 A Few Clouds FEW260 67.8 64.4 89% 29.94 0.0
07 20:35 NE 6 10.00 A Few Clouds FEW260 68.2 64.4 88% 29.93 0.0
07 20:15 NE 8 10.00 Fair CLR 68.7 64.6 87% 29.93 0.0
07 19:55 NE 9 10.00 Partly Cloudy SCT170 70.2 65.1 84% 29.92 0.0
07 19:35 N 8 10.00 A Few Clouds FEW060 71.1 65.7 83% 29.93 0.0
07 19:15 NE 9 10.00 Overcast OVC060 72.5 66 80% 29.92 0.0
07 18:55 NE 7 10.00 Mostly Cloudy BKN060 73.6 66.4 78.1 73.2 78% 29.92 0.0
07 18:35 NE 7 10.00 Mostly Cloudy BKN060 74.3 66.7 77% 29.92 0.0
07 18:15 NE 10 10.00 Partly Cloudy SCT044 SCT055 74.3 66.4 76% 29.91 0.0
07 17:55 N 10 10.00 Overcast OVC044 75 66.6 75% 76 29.92 0.0
07 17:35 NE 10 10.00 Overcast OVC043 75.4 66.9 75% 77 29.92 0.0
07 17:15 NE 7 10.00 Overcast BKN028 OVC044 76.3 67.3 74% 78 29.92 0.0
07 16:55 N 10 10.00 Partly Cloudy SCT028 76.6 67.3 73% 78 29.92 0.0
Date Time (cdt) Wind (mph) Vis. (mi.) Weather Sky Cond. Air Dwpt Max. Min. Relative Humidity Wind Chill (°F) Heat Index (°F) altimeter (in) sea level (mb) 1 hr 3 hr 6 hr
6 hour
Temperature (ºF) Pressure Precipitation (in)